Time;durP1;ratioP1;P1;durP2;ratioP2;P2;SDS_P1;SDS_P2;PMS_P1;PMS_P2;Temp;Humidity;BMP_temperature;BMP_pressure;BME280_temperature;BME280_humidity;BME280_pressure;Samples;Min_cycle;Max_cycle;Signal;HPM_P1;HPM_P2
2021/09/17 00:00:33;;;;;;;14.07;10.02;;;17.40;76.00;;;;;;5070781;28;20028;-77
2021/09/17 00:03:00;;;;;;;13.35;10.05;;;17.40;76.00;;;;;;5070967;28;20218;-77
2021/09/17 00:05:26;;;;;;;16.05;12.32;;;17.40;76.10;;;;;;5069353;28;20089;-78
2021/09/17 00:07:51;;;;;;;14.07;9.68;;;17.40;76.30;;;;;;5069804;28;20054;-78
2021/09/17 00:10:18;;;;;;;17.98;13.80;;;17.40;76.30;;;;;;5070971;28;20025;-78
2021/09/17 00:12:43;;;;;;;14.70;11.38;;;17.40;76.50;;;;;;5071443;28;20143;-78
2021/09/17 00:15:11;;;;;;;13.45;9.95;;;17.40;76.50;;;;;;5070834;28;20775;-78
2021/09/17 00:17:37;;;;;;;17.25;12.82;;;17.40;76.50;;;;;;5070845;28;20060;-79
2021/09/17 00:20:04;;;;;;;15.93;12.27;;;17.40;76.70;;;;;;5071417;28;20063;-78
2021/09/17 00:22:30;;;;;;;14.65;10.30;;;17.40;76.70;;;;;;5070354;28;20033;-78
2021/09/17 00:24:55;;;;;;;12.35;9.35;;;17.40;76.70;;;;;;5071147;28;20070;-77
2021/09/17 00:27:21;;;;;;;10.23;8.18;;;17.40;76.70;;;;;;5070799;28;20032;-77
2021/09/17 00:29:47;;;;;;;12.98;8.98;;;17.40;76.50;;;;;;5069225;28;20016;-78
2021/09/17 00:32:13;;;;;;;14.20;12.00;;;17.40;76.50;;;;;;5070906;28;20059;-78
2021/09/17 00:34:39;;;;;;;14.15;10.80;;;17.40;76.70;;;;;;5069955;28;20423;-78
2021/09/17 00:37:05;;;;;;;16.65;12.50;;;17.40;76.70;;;;;;5070905;28;20023;-78
2021/09/17 00:39:30;;;;;;;16.70;11.60;;;17.40;76.70;;;;;;5070262;28;20021;-77
2021/09/17 00:41:57;;;;;;;13.88;9.95;;;17.40;76.80;;;;;;5071230;28;20070;-77
2021/09/17 00:44:28;;;;;;;12.35;9.30;;;17.30;76.70;;;;;;5069473;28;20017;-77
2021/09/17 00:46:54;;;;;;;14.05;10.02;;;17.30;76.90;;;;;;5070559;28;20031;-77
2021/09/17 00:49:21;;;;;;;13.70;10.15;;;17.30;76.90;;;;;;5071047;28;20104;-77
2021/09/17 00:51:47;;;;;;;13.80;10.38;;;17.30;77.00;;;;;;5070995;28;20471;-78
2021/09/17 00:54:13;;;;;;;15.27;11.68;;;17.20;76.90;;;;;;5069655;28;20025;-78
2021/09/17 00:56:39;;;;;;;12.55;9.68;;;17.30;77.00;;;;;;5070249;28;20164;-78
2021/09/17 00:59:04;;;;;;;14.82;10.68;;;17.20;76.90;;;;;;5070754;28;20023;-78
2021/09/17 01:01:30;;;;;;;17.02;12.70;;;17.30;76.90;;;;;;5071063;28;20024;-78
2021/09/17 01:03:55;;;;;;;16.25;11.68;;;17.20;76.90;;;;;;5068932;28;20024;-78
2021/09/17 01:06:21;;;;;;;16.27;11.02;;;17.20;77.00;;;;;;5068763;28;20025;-78
2021/09/17 01:08:46;;;;;;;14.77;11.27;;;17.20;77.00;;;;;;5070218;28;20108;-78
2021/09/17 01:11:13;;;;;;;19.30;14.85;;;17.20;77.00;;;;;;5070504;28;20463;-78
2021/09/17 01:13:39;;;;;;;17.13;12.50;;;17.20;77.10;;;;;;5070663;28;20036;-77
2021/09/17 01:16:05;;;;;;;16.60;12.18;;;17.20;77.10;;;;;;5070242;28;20387;-78
2021/09/17 01:18:31;;;;;;;14.95;10.68;;;17.20;77.20;;;;;;5070761;28;20024;-77
2021/09/17 01:20:58;;;;;;;14.98;10.30;;;17.20;77.20;;;;;;5070549;28;20033;-78
2021/09/17 01:23:24;;;;;;;15.15;11.07;;;17.20;77.10;;;;;;5070945;28;20363;-76
2021/09/17 01:25:50;;;;;;;15.30;11.30;;;17.20;77.10;;;;;;5070081;28;20017;-77
2021/09/17 01:28:31;;;;;;;15.75;12.27;;;17.30;77.20;;;;;;5070457;28;20425;-77
2021/09/17 01:30:57;;;;;;;15.02;11.27;;;17.20;77.20;;;;;;5070485;28;20027;-78
2021/09/17 01:33:23;;;;;;;13.68;10.77;;;17.30;77.20;;;;;;5072274;28;20044;-77
2021/09/17 01:36:00;;;;;;;14.77;11.40;;;17.30;77.20;;;;;;5072188;28;20067;-78
2021/09/17 01:38:28;;;;;;;16.77;11.63;;;17.30;77.20;;;;;;5074466;28;20032;-77
2021/09/17 01:40:54;;;;;;;16.33;11.75;;;17.30;77.20;;;;;;5073843;28;20024;-78
2021/09/17 01:43:20;;;;;;;17.70;12.80;;;17.30;77.10;;;;;;5073839;28;20035;-77
2021/09/17 01:45:46;;;;;;;15.55;11.52;;;17.30;77.20;;;;;;5060119;28;20021;-78
2021/09/17 01:48:12;;;;;;;14.00;10.98;;;17.30;77.20;;;;;;5072346;28;20048;-78
2021/09/17 01:50:37;;;;;;;14.90;11.25;;;17.30;77.20;;;;;;5074345;28;20482;-78
2021/09/17 01:53:03;;;;;;;15.63;11.63;;;17.30;77.30;;;;;;5074030;28;20494;-79
2021/09/17 01:55:28;;;;;;;14.70;11.38;;;17.30;77.30;;;;;;5073716;28;20175;-77
2021/09/17 01:57:54;;;;;;;13.35;9.63;;;17.30;77.30;;;;;;5073824;28;20024;-77
2021/09/17 02:00:20;;;;;;;15.85;11.20;;;17.30;77.20;;;;;;5073962;28;20024;-77
2021/09/17 02:02:46;;;;;;;16.38;11.18;;;17.30;77.30;;;;;;5073742;28;20396;-77
2021/09/17 02:05:12;;;;;;;14.27;10.55;;;17.30;77.30;;;;;;5073790;28;20128;-77
2021/09/17 02:07:37;;;;;;;17.35;12.95;;;17.20;77.20;;;;;;5072863;28;20492;-77
2021/09/17 02:10:05;;;;;;;16.67;11.10;;;17.30;77.30;;;;;;5073459;28;20029;-77
2021/09/17 02:12:30;;;;;;;16.05;11.57;;;17.30;77.30;;;;;;5072641;28;20024;-77
2021/09/17 02:14:56;;;;;;;16.00;11.38;;;17.20;77.30;;;;;;5072855;28;20126;-77
2021/09/17 02:17:23;;;;;;;17.40;13.52;;;17.20;77.40;;;;;;5073034;28;20106;-76
2021/09/17 02:19:49;;;;;;;17.35;12.43;;;17.20;77.60;;;;;;5073306;28;20032;-78
2021/09/17 02:22:14;;;;;;;15.13;10.70;;;17.30;77.70;;;;;;5073307;28;20094;-77
2021/09/17 02:24:40;;;;;;;15.00;11.02;;;17.30;77.60;;;;;;5073335;28;20040;-78
2021/09/17 02:27:06;;;;;;;14.90;10.63;;;17.30;77.60;;;;;;5072661;28;20482;-78
2021/09/17 02:29:32;;;;;;;16.02;11.27;;;17.30;77.60;;;;;;5073318;28;20528;-78
2021/09/17 02:31:57;;;;;;;16.13;11.88;;;17.30;77.60;;;;;;5073189;28;20039;-78
2021/09/17 02:34:23;;;;;;;16.10;11.90;;;17.30;77.60;;;;;;5073434;28;20033;-78
2021/09/17 02:36:48;;;;;;;15.25;11.50;;;17.30;77.60;;;;;;5072792;28;20047;-77
2021/09/17 02:39:15;;;;;;;14.18;10.73;;;17.30;77.60;;;;;;5072583;28;20152;-78
2021/09/17 02:41:41;;;;;;;16.67;11.98;;;17.30;77.60;;;;;;5073352;28;20036;-78
2021/09/17 02:44:07;;;;;;;14.20;10.32;;;17.30;77.60;;;;;;5072931;28;20055;-77
2021/09/17 02:46:33;;;;;;;13.00;9.85;;;17.30;77.60;;;;;;5072456;28;20028;-78
2021/09/17 02:48:59;;;;;;;13.13;10.05;;;17.30;77.60;;;;;;5072972;28;20021;-77
2021/09/17 02:51:25;;;;;;;13.90;10.38;;;17.40;77.60;;;;;;5072547;28;20020;-79
2021/09/17 02:53:51;;;;;;;13.45;10.50;;;17.40;77.70;;;;;;5072741;28;20391;-77
2021/09/17 02:56:16;;;;;;;13.38;10.35;;;17.40;77.70;;;;;;5072234;28;20027;-77
2021/09/17 02:58:42;;;;;;;13.55;9.27;;;17.40;77.70;;;;;;5069186;28;20036;-77
2021/09/17 03:01:08;;;;;;;14.95;10.63;;;17.40;77.60;;;;;;5052837;28;20024;-78
2021/09/17 03:03:33;;;;;;;14.07;9.95;;;17.40;77.60;;;;;;5052633;28;20036;-78
2021/09/17 03:05:59;;;;;;;12.52;9.55;;;17.40;77.60;;;;;;5052317;28;20029;-78
2021/09/17 03:08:24;;;;;;;14.40;10.80;;;17.40;77.60;;;;;;5067663;28;20071;-78
2021/09/17 03:10:52;;;;;;;12.70;9.27;;;17.40;77.70;;;;;;5071371;28;20025;-78
2021/09/17 03:13:17;;;;;;;14.90;10.50;;;17.40;77.80;;;;;;5071081;28;20426;-78
2021/09/17 03:15:43;;;;;;;14.18;9.93;;;17.40;77.90;;;;;;5071847;28;20028;-79
2021/09/17 03:18:08;;;;;;;13.70;9.98;;;17.40;77.80;;;;;;5072098;28;20036;-79
2021/09/17 03:20:34;;;;;;;14.57;9.40;;;17.40;77.80;;;;;;5072536;28;20100;-80
2021/09/17 03:23:00;;;;;;;14.63;10.70;;;17.40;77.90;;;;;;5072150;28;20037;-80
2021/09/17 03:25:26;;;;;;;12.93;9.50;;;17.40;77.90;;;;;;5072082;28;20103;-79
2021/09/17 03:27:52;;;;;;;13.18;9.60;;;17.40;77.90;;;;;;5071715;28;20111;-80
2021/09/17 03:30:17;;;;;;;13.63;10.02;;;17.40;77.80;;;;;;5070422;28;20017;-78
2021/09/17 03:32:43;;;;;;;11.73;8.93;;;17.50;77.80;;;;;;5072035;28;20033;-79
2021/09/17 03:35:08;;;;;;;13.07;9.65;;;17.40;77.90;;;;;;5071782;28;20017;-78
2021/09/17 03:37:34;;;;;;;13.45;9.30;;;17.40;77.90;;;;;;5069864;28;20475;-79
2021/09/17 03:40:00;;;;;;;13.18;9.52;;;17.40;78.00;;;;;;5071604;28;20032;-80
2021/09/17 03:42:28;;;;;;;13.95;10.20;;;17.40;78.00;;;;;;5071639;28;20123;-80
2021/09/17 03:44:54;;;;;;;13.38;9.90;;;17.40;78.00;;;;;;5070630;28;20024;-79
2021/09/17 03:47:19;;;;;;;16.40;10.63;;;17.40;78.00;;;;;;5070817;28;20489;-78
2021/09/17 03:49:45;;;;;;;12.20;8.93;;;17.40;78.10;;;;;;5071687;28;20035;-79
2021/09/17 03:52:10;;;;;;;14.10;9.88;;;17.40;78.10;;;;;;5071859;28;20027;-78
2021/09/17 03:54:36;;;;;;;14.55;10.50;;;17.40;78.10;;;;;;5071738;28;20016;-78
2021/09/17 03:57:01;;;;;;;12.60;9.10;;;17.40;78.70;;;;;;5070635;28;20502;-79
2021/09/17 03:59:27;;;;;;;15.70;10.75;;;17.40;78.10;;;;;;5071597;28;20024;-80
2021/09/17 04:01:52;;;;;;;14.63;10.55;;;17.40;78.70;;;;;;5071466;28;20036;-77
2021/09/17 04:04:18;;;;;;;13.82;10.07;;;17.40;78.10;;;;;;5069928;28;20509;-78
2021/09/17 04:06:44;;;;;;;13.35;9.50;;;17.40;78.10;;;;;;5070800;28;20440;-78
2021/09/17 04:09:10;;;;;;;14.27;10.60;;;17.40;78.10;;;;;;5070164;28;20056;-78
2021/09/17 04:11:36;;;;;;;16.38;11.57;;;17.40;78.10;;;;;;5071621;28;20087;-79
2021/09/17 04:14:02;;;;;;;17.42;12.88;;;17.40;78.10;;;;;;5071286;28;20074;-78
2021/09/17 04:16:28;;;;;;;16.70;12.70;;;17.30;78.30;;;;;;5070884;28;20471;-78
2021/09/17 04:18:53;;;;;;;14.68;10.63;;;17.30;78.30;;;;;;5071126;28;20059;-78
2021/09/17 04:21:19;;;;;;;17.80;11.73;;;17.30;78.40;;;;;;5071691;28;20036;-76
2021/09/17 04:23:44;;;;;;;14.60;10.27;;;17.30;78.30;;;;;;5071300;28;20028;-76
2021/09/17 04:26:10;;;;;;;14.18;10.02;;;17.30;78.30;;;;;;5071043;28;20471;-78
2021/09/17 04:28:35;;;;;;;14.02;10.13;;;17.30;78.30;;;;;;5071051;28;20066;-78
2021/09/17 04:31:01;;;;;;;12.98;9.20;;;17.30;78.30;;;;;;5071240;28;20044;-78
2021/09/17 04:33:26;;;;;;;14.77;10.15;;;17.30;78.30;;;;;;5063690;28;20395;-77
2021/09/17 04:35:52;;;;;;;14.93;10.65;;;17.30;78.40;;;;;;5066444;28;20020;-77
2021/09/17 04:38:17;;;;;;;13.82;9.85;;;17.30;78.40;;;;;;5070729;28;20020;-76
2021/09/17 04:40:43;;;;;;;13.35;9.35;;;17.30;78.40;;;;;;5070991;28;20024;-78
2021/09/17 04:43:10;;;;;;;14.98;10.75;;;17.30;78.50;;;;;;5069651;28;20532;-77
2021/09/17 04:45:35;;;;;;;15.13;10.38;;;17.30;78.40;;;;;;5067268;28;20460;-77
2021/09/17 04:48:12;;;;;;;13.57;9.80;;;17.30;78.30;;;;;;5070431;28;20035;-77
2021/09/17 04:50:38;;;;;;;13.68;9.50;;;17.30;78.40;;;;;;5070499;28;20928;-77
2021/09/17 04:53:04;;;;;;;15.25;11.23;;;17.30;78.40;;;;;;5068312;28;20480;-78
2021/09/17 04:55:29;;;;;;;19.83;13.82;;;17.30;78.50;;;;;;5070239;28;20075;-78
2021/09/17 04:57:55;;;;;;;15.82;11.73;;;17.20;78.70;;;;;;5060917;28;20025;-78
2021/09/17 05:00:23;;;;;;;19.58;14.02;;;17.20;78.90;;;;;;5061329;28;20154;-78
2021/09/17 05:02:48;;;;;;;17.73;12.82;;;17.10;79.30;;;;;;5061312;28;20053;-78
2021/09/17 05:05:14;;;;;;;17.67;13.38;;;17.00;79.60;;;;;;5070739;28;20029;-77
2021/09/17 05:07:40;;;;;;;21.45;16.25;;;17.00;79.70;;;;;;5058952;28;20375;-78
2021/09/17 05:10:05;;;;;;;19.08;13.38;;;17.00;79.80;;;;;;5064742;28;20013;-79
2021/09/17 05:12:31;;;;;;;17.95;12.90;;;17.00;79.70;;;;;;5066527;28;20028;-79
2021/09/17 05:14:57;;;;;;;21.00;14.38;;;17.00;79.70;;;;;;5063761;28;20020;-79
2021/09/17 05:17:23;;;;;;;17.63;12.45;;;17.00;79.70;;;;;;5059830;28;20025;-79
2021/09/17 05:19:48;;;;;;;18.48;12.65;;;17.10;79.70;;;;;;5064983;28;20032;-78
2021/09/17 05:22:14;;;;;;;16.63;11.85;;;17.10;79.60;;;;;;5068056;28;20501;-79
2021/09/17 05:24:39;;;;;;;15.43;11.20;;;17.10;79.60;;;;;;5067398;28;20022;-78
2021/09/17 05:27:12;;;;;;;16.67;11.50;;;17.10;79.50;;;;;;5069837;28;20025;-79
2021/09/17 05:29:37;;;;;;;14.80;10.55;;;17.20;79.40;;;;;;5066074;28;20100;-79
2021/09/17 05:32:03;;;;;;;16.92;12.18;;;17.20;79.30;;;;;;5064807;28;20845;-79
2021/09/17 05:34:29;;;;;;;21.92;15.93;;;17.20;79.20;;;;;;5078471;28;20115;-78
2021/09/17 05:36:54;;;;;;;19.15;13.85;;;17.20;79.30;;;;;;5061475;28;20025;-78
2021/09/17 05:39:20;;;;;;;16.90;11.85;;;17.10;79.30;;;;;;5064013;28;20025;-80
2021/09/17 05:41:45;;;;;;;18.10;12.45;;;17.20;79.40;;;;;;5066106;28;20043;-79
2021/09/17 05:44:11;;;;;;;15.20;11.40;;;17.20;79.30;;;;;;5062801;28;20021;-79
2021/09/17 05:46:36;;;;;;;17.70;13.18;;;17.20;79.30;;;;;;5062905;28;20112;-79
2021/09/17 05:49:02;;;;;;;17.52;12.52;;;17.20;79.30;;;;;;5064891;28;20028;-80
2021/09/17 05:51:27;;;;;;;17.27;12.35;;;17.30;79.40;;;;;;5065083;28;20065;-77
2021/09/17 05:53:53;;;;;;;17.02;11.60;;;17.30;79.30;;;;;;5071444;28;20028;-78
2021/09/17 05:56:18;;;;;;;17.00;12.50;;;17.30;79.30;;;;;;5063319;28;20138;-79
2021/09/17 05:58:44;;;;;;;14.75;10.50;;;17.30;79.30;;;;;;5072090;28;20024;-78
2021/09/17 06:01:09;;;;;;;15.65;11.13;;;17.30;79.20;;;;;;5071615;28;20040;-78
2021/09/17 06:03:35;;;;;;;15.32;10.80;;;17.30;79.10;;;;;;5072888;28;20024;-77
2021/09/17 06:06:01;;;;;;;15.30;11.70;;;17.40;79.10;;;;;;5072395;28;20029;-78
2021/09/17 06:08:26;;;;;;;17.30;11.98;;;17.40;78.90;;;;;;5073356;28;20082;-78
2021/09/17 06:10:51;;;;;;;16.52;11.60;;;17.40;78.80;;;;;;5072846;28;20028;-79
2021/09/17 06:13:17;;;;;;;15.32;11.60;;;17.50;78.70;;;;;;5072991;28;20035;-78
2021/09/17 06:15:44;;;;;;;19.33;13.57;;;17.50;78.70;;;;;;5071407;28;20060;-79
2021/09/17 06:18:09;;;;;;;17.58;12.15;;;17.50;78.80;;;;;;5073060;28;20059;-78
2021/09/17 06:20:35;;;;;;;24.05;17.58;;;17.50;78.90;;;;;;5071957;28;20494;-78
2021/09/17 06:23:00;;;;;;;24.60;16.60;;;17.40;79.00;;;;;;5072081;28;20032;-78
2021/09/17 06:25:26;;;;;;;17.92;13.45;;;17.40;79.10;;;;;;5072382;28;20025;-78
2021/09/17 06:27:51;;;;;;;25.48;18.23;;;17.40;79.30;;;;;;5070266;28;20467;-78
2021/09/17 06:30:18;;;;;;;21.52;15.43;;;17.50;79.40;;;;;;5069893;28;20021;-79
2021/09/17 06:32:47;;;;;;;22.92;16.45;;;17.50;79.40;;;;;;5066381;28;20028;-78
2021/09/17 06:35:13;;;;;;;23.50;17.33;;;17.50;79.40;;;;;;5072763;28;20008;-78
2021/09/17 06:37:51;;;;;;;19.02;14.07;;;17.50;79.50;;;;;;5071895;28;20075;-78
2021/09/17 06:40:19;;;;;;;22.85;15.90;;;17.60;79.50;;;;;;5071948;28;20021;-79
2021/09/17 06:42:45;;;;;;;28.60;19.90;;;17.70;79.40;;;;;;5066748;28;20039;-78
2021/09/17 06:45:11;;;;;;;21.05;16.20;;;17.70;79.30;;;;;;5080888;28;20023;-78
2021/09/17 06:47:47;;;;;;;18.08;13.77;;;17.70;79.30;;;;;;5075222;28;20033;-80
2021/09/17 06:50:15;;;;;;;21.10;14.95;;;17.70;79.20;;;;;;5072336;28;20073;-79
2021/09/17 06:52:47;;;;;;;19.58;13.65;;;17.80;79.10;;;;;;5072300;28;20036;-79
2021/09/17 06:55:13;;;;;;;26.33;18.70;;;17.80;79.00;;;;;;5072195;28;20355;-79
2021/09/17 06:58:00;;;;;;;21.85;16.30;;;17.80;79.00;;;;;;5069913;28;20626;-80
2021/09/17 07:00:32;;;;;;;21.92;15.50;;;17.80;79.10;;;;;;5065978;28;20021;-80
2021/09/17 07:02:58;;;;;;;22.42;15.93;;;17.80;79.00;;;;;;5068134;28;20482;-81
2021/09/17 07:05:24;;;;;;;27.63;19.63;;;17.90;79.00;;;;;;5072406;28;20031;-83
2021/09/17 07:07:50;;;;;;;23.60;18.05;;;17.90;79.00;;;;;;5070643;28;20016;-82
2021/09/17 07:10:17;;;;;;;22.98;16.80;;;17.90;79.00;;;;;;5072539;28;20017;-81
2021/09/17 07:12:44;;;;;;;20.10;15.20;;;17.90;78.90;;;;;;5072726;28;20028;-81
2021/09/17 07:15:10;;;;;;;25.63;18.95;;;18.00;78.90;;;;;;5073635;28;20115;-78
2021/09/17 07:17:36;;;;;;;23.23;17.08;;;18.00;78.90;;;;;;5068593;28;20103;-78
2021/09/17 07:20:03;;;;;;;19.33;13.77;;;18.00;78.80;;;;;;5072262;28;20482;-84
2021/09/17 07:22:28;;;;;;;22.23;15.93;;;18.00;78.70;;;;;;5071054;28;20642;-82
2021/09/17 07:24:54;;;;;;;21.77;16.38;;;18.10;78.50;;;;;;5080158;28;20029;-81
2021/09/17 07:27:19;;;;;;;19.42;14.70;;;18.10;78.40;;;;;;5071174;28;20024;-80
2021/09/17 07:29:45;;;;;;;20.25;15.25;;;18.10;78.30;;;;;;5070834;28;20036;-82
2021/09/17 07:32:11;;;;;;;17.60;12.38;;;18.10;78.20;;;;;;5069394;28;20036;-81
2021/09/17 07:34:36;;;;;;;24.23;16.77;;;18.20;78.10;;;;;;5055949;28;20020;-81
2021/09/17 07:37:03;;;;;;;16.70;12.63;;;18.20;77.90;;;;;;5064384;28;20039;-80
2021/09/17 07:39:29;;;;;;;14.15;10.05;;;18.30;77.80;;;;;;5068023;28;20020;-80
2021/09/17 07:41:54;;;;;;;18.58;13.55;;;18.30;77.70;;;;;;5069049;28;20090;-80
2021/09/17 07:44:20;;;;;;;22.02;16.65;;;18.40;77.50;;;;;;5067681;28;20028;-80
2021/09/17 07:46:45;;;;;;;19.77;15.38;;;18.40;77.30;;;;;;5061730;28;20628;-80
2021/09/17 07:49:11;;;;;;;23.05;16.88;;;18.40;77.20;;;;;;5060440;28;20415;-81
2021/09/17 07:51:36;;;;;;;18.00;13.57;;;18.40;77.00;;;;;;5070160;28;20021;-81
2021/09/17 07:54:02;;;;;;;20.27;14.13;;;18.50;77.00;;;;;;5070724;28;20542;-81
2021/09/17 07:56:27;;;;;;;23.25;18.48;;;18.50;77.40;;;;;;5069573;28;20032;-81
2021/09/17 07:58:53;;;;;;;19.70;15.65;;;18.60;76.50;;;;;;5066971;28;20437;-81
2021/09/17 08:01:18;;;;;;;26.75;20.20;;;18.50;76.50;;;;;;5067184;28;20033;-82
2021/09/17 08:03:44;;;;;;;21.98;16.30;;;18.50;76.20;;;;;;5065791;28;20090;-81
2021/09/17 08:06:10;;;;;;;24.30;18.63;;;18.50;76.30;;;;;;5068513;28;20020;-81
2021/09/17 08:08:36;;;;;;;22.52;17.27;;;18.50;76.10;;;;;;5068776;28;20078;-81
2021/09/17 08:11:02;;;;;;;17.00;12.98;;;18.50;76.00;;;;;;5070815;28;20017;-81
2021/09/17 08:13:27;;;;;;;19.95;16.23;;;18.60;75.90;;;;;;5070173;28;20502;-80
2021/09/17 08:15:53;;;;;;;20.67;15.73;;;18.70;75.70;;;;;;5064989;28;20029;-80
2021/09/17 08:18:19;;;;;;;19.05;14.60;;;18.70;75.50;;;;;;5063799;28;20021;-80
2021/09/17 08:20:51;;;;;;;20.92;16.02;;;18.70;75.20;;;;;;5069924;28;20515;-80
2021/09/17 08:23:19;;;;;;;14.73;10.65;;;18.80;75.10;;;;;;5068973;28;20040;-80
2021/09/17 08:25:54;;;;;;;13.75;10.55;;;18.90;75.00;;;;;;5058350;28;20024;-81
2021/09/17 08:28:21;;;;;;;15.75;11.65;;;19.00;74.90;;;;;;5058950;28;20115;-81
2021/09/17 08:30:46;;;;;;;12.25;9.93;;;19.10;74.50;;;;;;5065152;28;20546;-81
2021/09/17 08:33:12;;;;;;;14.57;10.80;;;19.30;74.40;;;;;;5067343;28;20119;-80
2021/09/17 08:35:37;;;;;;;15.23;10.52;;;19.40;74.10;;;;;;5066776;28;20029;-80
2021/09/17 08:38:05;;;;;;;13.00;10.50;;;19.50;74.00;;;;;;5068389;28;20445;-81
2021/09/17 08:40:31;;;;;;;15.60;11.95;;;19.60;73.80;;;;;;5066826;28;20025;-79
2021/09/17 08:42:59;;;;;;;14.52;11.32;;;19.60;73.60;;;;;;5062100;28;20119;-80
2021/09/17 08:45:26;;;;;;;15.98;12.00;;;19.70;73.50;;;;;;5064683;28;20490;-80
2021/09/17 08:47:52;;;;;;;11.90;9.35;;;19.80;73.20;;;;;;5067995;28;20111;-80
2021/09/17 08:50:19;;;;;;;15.02;12.63;;;19.90;73.00;;;;;;5068482;28;20483;-80
2021/09/17 08:52:44;;;;;;;17.17;13.27;;;20.00;72.60;;;;;;5067961;28;20123;-81
2021/09/17 08:55:10;;;;;;;15.48;11.20;;;20.10;72.30;;;;;;5067395;28;20123;-81
2021/09/17 08:57:36;;;;;;;18.08;14.05;;;20.20;72.10;;;;;;5066812;28;20021;-81
2021/09/17 09:00:04;;;;;;;11.20;8.75;;;20.20;71.70;;;;;;5068265;28;20025;-82
2021/09/17 09:02:30;;;;;;;9.98;7.18;;;20.20;71.60;;;;;;5066786;28;20047;-82
2021/09/17 09:05:05;;;;;;;12.63;8.73;;;20.30;71.60;;;;;;5066737;28;20033;-81
2021/09/17 09:07:38;;;;;;;15.27;11.25;;;20.40;71.50;;;;;;5065499;28;20028;-81
2021/09/17 09:10:06;;;;;;;14.18;10.88;;;20.50;71.30;;;;;;5066314;28;20025;-80
2021/09/17 09:12:32;;;;;;;12.48;10.38;;;20.50;71.10;;;;;;5066974;28;20112;-79
2021/09/17 09:15:16;;;;;;;9.20;7.28;;;20.60;71.10;;;;;;5066201;28;20530;-81
2021/09/17 09:17:43;;;;;;;15.57;11.45;;;20.60;70.90;;;;;;5066150;28;20094;-80
2021/09/17 09:20:31;;;;;;;11.25;8.82;;;20.70;70.70;;;;;;5070327;28;20479;-79
2021/09/17 09:23:10;;;;;;;12.68;10.32;;;20.70;71.10;;;;;;5071487;28;20094;-80
2021/09/17 09:25:50;;;;;;;17.30;12.07;;;20.90;70.30;;;;;;5067477;28;20036;-81
2021/09/17 09:28:18;;;;;;;21.00;14.93;;;21.00;69.90;;;;;;5060431;28;20021;-79
2021/09/17 09:30:43;;;;;;;15.88;12.75;;;21.00;69.50;;;;;;5067214;28;20063;-81
2021/09/17 09:33:29;;;;;;;19.95;15.07;;;21.00;69.40;;;;;;5068987;28;20052;-81
2021/09/17 09:36:03;;;;;;;17.15;12.48;;;21.00;69.10;;;;;;5065567;28;20021;-81
2021/09/17 09:38:30;;;;;;;14.57;10.75;;;21.10;69.10;;;;;;5066552;28;20031;-80
2021/09/17 09:40:58;;;;;;;14.02;10.30;;;21.10;69.00;;;;;;5069509;28;20032;-81
2021/09/17 09:43:29;;;;;;;11.60;8.93;;;21.20;68.90;;;;;;5065126;28;20033;-82
2021/09/17 09:45:57;;;;;;;12.40;10.13;;;21.30;68.60;;;;;;5076915;28;20033;-81
2021/09/17 09:48:23;;;;;;;13.23;10.35;;;21.40;68.40;;;;;;5068948;28;20036;-83
2021/09/17 09:50:48;;;;;;;14.63;11.13;;;21.40;67.90;;;;;;5069981;28;20020;-83
2021/09/17 09:53:15;;;;;;;15.73;11.90;;;21.50;67.80;;;;;;5068496;28;20033;-83
2021/09/17 09:55:41;;;;;;;12.77;9.65;;;21.50;67.60;;;;;;5072361;28;20115;-83
2021/09/17 09:58:06;;;;;;;16.65;13.10;;;21.50;67.50;;;;;;5072057;28;20673;-82
2021/09/17 10:00:32;;;;;;;13.52;10.15;;;21.40;66.90;;;;;;5072845;28;20039;-82
2021/09/17 10:02:59;;;;;;;12.55;9.63;;;21.40;67.90;;;;;;5072350;28;20028;-84
2021/09/17 10:05:27;;;;;;;12.25;9.88;;;21.40;67.50;;;;;;5065355;28;20559;-83
2021/09/17 10:07:53;;;;;;;12.73;10.10;;;21.50;67.40;;;;;;5068150;28;20025;-82
2021/09/17 10:10:18;;;;;;;12.20;10.23;;;21.50;67.00;;;;;;5071367;28;20057;-82
2021/09/17 10:12:46;;;;;;;12.98;9.82;;;21.40;66.80;;;;;;5069800;28;20531;-79
2021/09/17 10:15:12;;;;;;;10.75;7.78;;;21.50;66.90;;;;;;5065376;28;20027;-80
2021/09/17 10:17:39;;;;;;;9.88;7.28;;;21.60;67.00;;;;;;5068417;28;20486;-80
2021/09/17 10:20:10;;;;;;;10.75;8.70;;;21.70;67.00;;;;;;5066934;28;20073;-79
2021/09/17 10:22:40;;;;;;;9.13;7.57;;;21.80;66.80;;;;;;5069118;28;20044;-81
2021/09/17 10:25:20;;;;;;;10.45;8.50;;;21.80;66.60;;;;;;5067493;28;20029;-81
2021/09/17 10:28:00;;;;;;;16.33;12.73;;;21.80;66.40;;;;;;5068240;28;20139;-79
2021/09/17 10:30:29;;;;;;;11.65;9.32;;;21.80;65.60;;;;;;5068039;28;20017;-81
2021/09/17 10:32:55;;;;;;;11.95;10.05;;;21.80;66.00;;;;;;5071118;28;20092;-80
2021/09/17 10:35:43;;;;;;;10.10;8.65;;;21.70;65.90;;;;;;5063296;28;20025;-80
2021/09/17 10:38:17;;;;;;;9.73;7.93;;;21.80;66.10;;;;;;5075052;28;20066;-79
2021/09/17 10:40:47;;;;;;;10.25;8.55;;;21.80;66.10;;;;;;5065519;28;20025;-82
2021/09/17 10:43:15;;;;;;;10.10;8.10;;;21.90;66.10;;;;;;5073948;28;20059;-79
2021/09/17 10:45:42;;;;;;;10.30;8.55;;;22.00;66.20;;;;;;5072555;28;20016;-78
2021/09/17 10:48:09;;;;;;;9.50;8.43;;;22.00;66.10;;;;;;5072045;28;20033;-78
2021/09/17 10:50:44;;;;;;;10.82;8.15;;;22.00;66.10;;;;;;5072751;28;20039;-80
2021/09/17 10:53:11;;;;;;;10.25;8.15;;;22.00;66.10;;;;;;5070846;28;20472;-82
2021/09/17 10:55:45;;;;;;;11.05;8.25;;;22.10;66.20;;;;;;5071662;28;20029;-82
2021/09/17 10:58:28;;;;;;;9.00;7.20;;;22.10;66.00;;;;;;5074373;28;20109;-78
2021/09/17 11:01:03;;;;;;;8.57;6.97;;;22.20;66.10;;;;;;5068762;28;20494;-78
2021/09/17 11:03:41;;;;;;;9.18;7.18;;;22.30;66.00;;;;;;5079315;28;20037;-76
2021/09/17 11:06:29;;;;;;;10.20;7.90;;;22.40;65.80;;;;;;5071347;28;20062;-82
2021/09/17 11:09:05;;;;;;;7.55;6.20;;;22.50;65.60;;;;;;5071280;28;20482;-81
2021/09/17 11:11:42;;;;;;;6.07;5.15;;;22.50;65.50;;;;;;5077718;28;20039;-79
2021/09/17 11:14:13;;;;;;;7.68;6.53;;;22.50;65.60;;;;;;5075531;28;20077;-81
2021/09/17 11:16:39;;;;;;;11.83;8.37;;;22.60;65.60;;;;;;5071633;28;20099;-80
2021/09/17 11:19:11;;;;;;;9.50;6.75;;;22.60;65.50;;;;;;5071761;28;20028;-81
2021/09/17 11:21:39;;;;;;;12.57;10.40;;;22.60;65.50;;;;;;5069613;28;20028;-81
2021/09/17 11:24:14;;;;;;;10.35;7.95;;;22.60;65.40;;;;;;5071295;28;20032;-80
2021/09/17 11:26:43;;;;;;;8.90;7.13;;;22.60;65.70;;;;;;5064561;28;20024;-80
2021/09/17 11:29:18;;;;;;;10.05;8.20;;;22.70;65.50;;;;;;5075338;28;20479;-81
2021/09/17 11:31:46;;;;;;;12.13;9.82;;;22.80;65.30;;;;;;5066973;28;20032;-81
2021/09/17 11:34:17;;;;;;;10.30;8.52;;;22.90;64.90;;;;;;5070967;28;20021;-82
2021/09/17 11:36:51;;;;;;;11.20;9.65;;;22.90;64.80;;;;;;5073826;28;20032;-81
2021/09/17 11:39:22;;;;;;;10.82;8.23;;;22.80;64.80;;;;;;5074392;28;20028;-80
2021/09/17 11:41:51;;;;;;;10.52;8.40;;;22.90;64.90;;;;;;5067886;28;20119;-82
2021/09/17 11:44:38;;;;;;;9.40;7.50;;;22.90;65.00;;;;;;5070869;28;20124;-81
2021/09/17 11:47:06;;;;;;;14.15;11.25;;;22.90;64.70;;;;;;5088520;28;20017;-82
2021/09/17 11:49:36;;;;;;;13.98;11.10;;;22.80;64.30;;;;;;5075429;28;20028;-83
2021/09/17 11:52:05;;;;;;;11.60;9.18;;;22.80;64.40;;;;;;5083540;28;20067;-83
2021/09/17 11:54:31;;;;;;;11.38;8.65;;;22.70;64.60;;;;;;5072724;28;20024;-82
2021/09/17 11:57:01;;;;;;;14.57;11.95;;;22.80;64.70;;;;;;5069860;28;20099;-81
2021/09/17 11:59:46;;;;;;;12.80;10.30;;;22.80;64.40;;;;;;5069229;28;20044;-81
2021/09/17 12:02:13;;;;;;;12.90;9.70;;;22.90;64.50;;;;;;5070305;28;20051;-78
2021/09/17 12:04:41;;;;;;;15.20;11.45;;;22.90;64.30;;;;;;5070329;28;20074;-78
2021/09/17 12:07:08;;;;;;;11.73;9.25;;;23.00;64.00;;;;;;5066036;28;20021;-81
2021/09/17 12:09:33;;;;;;;12.13;9.63;;;23.10;64.00;;;;;;5070397;28;20028;-81
2021/09/17 12:11:59;;;;;;;9.95;8.43;;;23.20;63.80;;;;;;5069820;28;20016;-81
2021/09/17 12:14:25;;;;;;;13.20;9.93;;;23.20;63.60;;;;;;5066615;28;20097;-79
2021/09/17 12:16:50;;;;;;;11.02;8.05;;;23.20;63.60;;;;;;5067665;28;20467;-80
2021/09/17 12:19:16;;;;;;;11.07;8.35;;;23.20;63.70;;;;;;5070824;28;20036;-79
2021/09/17 12:21:42;;;;;;;13.05;9.30;;;23.20;63.70;;;;;;5080639;28;20024;-79
2021/09/17 12:24:22;;;;;;;11.23;8.98;;;23.20;64.30;;;;;;5076994;28;20035;-79
2021/09/17 12:26:59;;;;;;;10.55;8.07;;;23.30;63.70;;;;;;5068204;28;20502;-79
2021/09/17 12:29:25;;;;;;;11.52;8.77;;;23.40;63.60;;;;;;5065919;28;20071;-78
2021/09/17 12:31:51;;;;;;;13.30;10.73;;;23.40;63.20;;;;;;5066809;28;20027;-78